createdAt,value
2022-11-10T00:02:20.787Z,1.50
2022-11-10T00:05:06.311Z,1.80
2022-11-10T00:07:51.917Z,0.00
2022-11-10T00:10:57.038Z,0.13
2022-11-10T00:14:01.240Z,0.20
2022-11-10T00:17:01.437Z,0.10
2022-11-10T00:19:47.182Z,0.52
2022-11-10T00:22:34.317Z,0.25
2022-11-10T00:25:19.920Z,0.70
2022-11-10T00:28:05.267Z,0.50
2022-11-10T00:30:50.631Z,0.32
2022-11-10T00:33:37.935Z,0.38
2022-11-10T00:36:23.932Z,0.65
2022-11-10T00:39:10.157Z,0.20
2022-11-10T00:41:57.824Z,1.08
2022-11-10T00:44:43.054Z,0.25
2022-11-10T00:47:28.469Z,0.52
2022-11-10T00:50:13.983Z,0.20
2022-11-10T00:52:59.195Z,1.65
2022-11-10T00:55:44.706Z,1.08
2022-11-10T00:58:29.914Z,0.20
2022-11-10T01:01:17.157Z,0.52
2022-11-10T01:04:03.095Z,0.28
2022-11-10T01:06:48.977Z,0.55
2022-11-10T01:09:34.183Z,0.90
2022-11-10T01:12:19.512Z,0.68
2022-11-10T01:15:05.792Z,0.75
2022-11-10T01:17:53.424Z,0.45
2022-11-10T01:20:38.897Z,1.85
2022-11-10T01:23:24.642Z,0.20
2022-11-10T01:26:11.102Z,0.15
2022-11-10T01:28:57.113Z,0.60
2022-11-10T01:31:42.421Z,0.85
2022-11-10T01:34:27.628Z,0.63
2022-11-10T01:37:12.941Z,0.47
2022-11-10T01:39:58.389Z,3.20
2022-11-10T01:42:58.144Z,1.13
2022-11-10T01:45:53.782Z,2.55
2022-11-10T01:48:44.943Z,0.38
2022-11-10T01:51:37.818Z,1.35
2022-11-10T01:54:27.381Z,0.45
2022-11-10T01:57:15.007Z,1.10
2022-11-10T02:00:01.583Z,1.70
2022-11-10T02:02:52.760Z,0.63
2022-11-10T02:05:37.819Z,0.22
2022-11-10T02:08:25.626Z,0.57
2022-11-10T02:11:11.677Z,1.02
2022-11-10T02:13:57.490Z,0.47
2022-11-10T02:16:43.317Z,0.10
2022-11-10T02:19:28.741Z,0.57
2022-11-10T02:22:14.149Z,1.27
2022-11-10T02:24:59.686Z,1.55
2022-11-10T02:27:45.287Z,0.93
2022-11-10T02:30:30.790Z,1.42
2022-11-10T02:33:19.636Z,0.30
2022-11-10T02:36:05.629Z,1.40
2022-11-10T02:38:50.761Z,0.20
2022-11-10T02:41:36.064Z,0.63
2022-11-10T02:44:21.760Z,0.30
2022-11-10T02:47:07.990Z,0.10
2022-11-10T02:49:53.398Z,0.70
2022-11-10T02:52:38.777Z,0.98
2022-11-10T02:55:24.000Z,0.10
2022-11-10T02:58:09.421Z,0.63
2022-11-10T03:00:54.807Z,0.30
2022-11-10T03:03:39.981Z,0.25
2022-11-10T03:06:25.414Z,0.10
2022-11-10T03:09:10.718Z,0.20
2022-11-10T03:11:56.030Z,0.85
2022-11-10T03:14:41.372Z,0.68
2022-11-10T03:17:26.686Z,0.10
2022-11-10T03:20:11.857Z,0.68
2022-11-10T03:23:02.663Z,0.30
2022-11-10T03:25:48.371Z,0.93
2022-11-10T03:28:34.153Z,2.22
2022-11-10T03:31:19.456Z,0.32
2022-11-10T03:34:04.805Z,0.30
2022-11-10T03:36:50.203Z,0.10
2022-11-10T03:39:35.553Z,0.10
2022-11-10T03:42:20.942Z,1.52
2022-11-10T03:45:06.878Z,0.10
2022-11-10T03:47:52.102Z,0.55
2022-11-10T03:50:37.369Z,0.35
2022-11-10T03:53:23.088Z,0.20
2022-11-10T03:56:08.941Z,1.95
2022-11-10T03:58:54.283Z,0.50
2022-11-10T04:01:39.728Z,0.30
2022-11-10T04:04:43.600Z,0.68
2022-11-10T04:07:47.407Z,0.00
2022-11-10T04:10:35.862Z,0.52
2022-11-10T04:13:39.989Z,0.35
2022-11-10T04:16:25.146Z,0.10
2022-11-10T04:19:10.433Z,0.25
2022-11-10T04:21:56.027Z,0.47
2022-11-10T04:24:41.113Z,1.30
2022-11-10T04:27:26.527Z,1.20
2022-11-10T04:30:11.954Z,0.20
2022-11-10T04:32:57.425Z,0.10
2022-11-10T04:35:42.799Z,0.10
2022-11-10T04:38:28.353Z,0.25
2022-11-10T04:41:14.217Z,0.17
2022-11-10T04:44:00.582Z,1.35
2022-11-10T04:46:45.937Z,0.10
2022-11-10T04:49:31.439Z,0.38
2022-11-10T04:52:16.948Z,0.10
2022-11-10T04:55:02.427Z,0.63
2022-11-10T04:57:47.706Z,0.08
2022-11-10T05:00:33.851Z,0.20
2022-11-10T05:03:19.469Z,0.20
2022-11-10T05:06:05.780Z,0.10
2022-11-10T05:08:51.858Z,0.55
2022-11-10T05:11:37.138Z,0.98
2022-11-10T05:14:22.405Z,0.10
2022-11-10T05:17:07.673Z,0.17
2022-11-10T05:19:53.310Z,1.33
2022-11-10T05:22:38.560Z,0.10
2022-11-10T05:25:23.829Z,0.20
2022-11-10T05:28:11.700Z,0.10
2022-11-10T05:30:57.089Z,0.10
2022-11-10T05:33:42.330Z,0.10
2022-11-10T05:36:27.700Z,0.10
2022-11-10T05:39:12.999Z,0.10
2022-11-10T05:41:58.682Z,0.20
2022-11-10T05:44:44.328Z,0.10
2022-11-10T05:47:29.619Z,0.80
2022-11-10T05:50:15.872Z,0.10
2022-11-10T05:53:01.444Z,0.20
2022-11-10T05:55:46.900Z,0.10
2022-11-10T05:58:32.085Z,0.00
2022-11-10T06:01:17.654Z,0.10
2022-11-10T06:04:03.318Z,0.10
2022-11-10T06:06:48.684Z,0.28
2022-11-10T06:09:35.565Z,0.20
2022-11-10T06:12:21.748Z,0.08
2022-11-10T06:15:08.214Z,0.10
2022-11-10T06:17:53.687Z,0.10
2022-11-10T06:20:38.773Z,0.38
2022-11-10T06:23:24.336Z,0.10
2022-11-10T06:26:10.073Z,0.20
2022-11-10T06:28:55.518Z,0.10
2022-11-10T06:31:41.013Z,0.10
2022-11-10T06:34:26.271Z,0.00
2022-11-10T06:37:11.678Z,0.22
2022-11-10T06:39:56.993Z,0.25
2022-11-10T06:42:42.377Z,0.30
2022-11-10T06:45:28.681Z,0.10
2022-11-10T06:48:14.398Z,0.80
2022-11-10T06:51:03.429Z,0.32
2022-11-10T06:53:48.766Z,0.10
2022-11-10T06:56:34.959Z,0.30
2022-11-10T06:59:20.087Z,0.20
2022-11-10T07:02:05.526Z,0.20
2022-11-10T07:04:50.837Z,0.75
2022-11-10T07:07:36.245Z,0.10
2022-11-10T07:10:21.442Z,0.10
2022-11-10T07:13:06.781Z,1.25
2022-11-10T07:15:52.464Z,0.65
2022-11-10T07:18:38.108Z,0.30
2022-11-10T07:21:23.084Z,0.45
2022-11-10T07:24:09.004Z,0.20
2022-11-10T07:26:54.540Z,0.25
2022-11-10T07:29:39.990Z,0.20
2022-11-10T07:32:25.595Z,0.20
2022-11-10T07:35:11.015Z,0.10
2022-11-10T07:38:02.887Z,0.75
2022-11-10T07:40:52.261Z,0.25
2022-11-10T07:43:37.709Z,0.10
2022-11-10T07:46:23.520Z,0.10
2022-11-10T07:49:08.753Z,0.10
2022-11-10T07:51:54.200Z,0.10
2022-11-10T07:54:39.488Z,0.10
2022-11-10T07:57:24.873Z,0.10
2022-11-10T08:00:12.657Z,0.10
2022-11-10T08:03:09.678Z,0.20
2022-11-10T08:06:03.258Z,0.10
2022-11-10T08:08:49.045Z,0.10
2022-11-10T08:11:34.482Z,0.13
2022-11-10T08:14:19.626Z,0.00
2022-11-10T08:17:05.046Z,0.00
2022-11-10T08:19:50.288Z,0.20
2022-11-10T08:22:35.508Z,0.20
2022-11-10T08:25:20.846Z,0.10
2022-11-10T08:28:17.629Z,0.32
2022-11-10T08:31:05.779Z,0.35
2022-11-10T08:33:52.140Z,0.20
2022-11-10T08:36:38.298Z,0.73
2022-11-10T08:39:38.292Z,0.10
2022-11-10T08:42:24.029Z,0.10
2022-11-10T08:45:09.690Z,0.28
2022-11-10T08:47:59.744Z,0.40
2022-11-10T08:50:45.717Z,0.10
2022-11-10T08:53:31.016Z,0.35
2022-11-10T08:56:16.365Z,0.52
2022-11-10T08:59:01.753Z,0.22
2022-11-10T09:01:47.012Z,0.55
2022-11-10T09:04:32.416Z,0.10
2022-11-10T09:07:17.639Z,0.25
2022-11-10T09:10:07.516Z,0.10
2022-11-10T09:12:53.736Z,0.88
2022-11-10T09:15:39.518Z,0.93
2022-11-10T09:18:24.945Z,0.20
2022-11-10T09:21:12.027Z,1.55
2022-11-10T09:23:57.135Z,0.68
2022-11-10T09:26:45.329Z,1.85
2022-11-10T09:32:16.338Z,0.55
2022-11-10T09:35:02.447Z,0.95
2022-11-10T09:37:47.468Z,0.20
2022-11-10T09:41:12.613Z,0.10
2022-11-10T09:44:39.474Z,0.60
2022-11-10T09:47:56.917Z,0.30
2022-11-10T09:51:03.220Z,0.68
2022-11-10T09:54:06.073Z,0.45
2022-11-10T09:56:53.662Z,1.65
2022-11-10T09:59:39.172Z,0.40
2022-11-10T10:02:39.933Z,0.40
2022-11-10T10:05:47.352Z,0.20
2022-11-10T10:09:01.201Z,0.22
2022-11-10T10:12:01.863Z,0.32
2022-11-10T10:14:57.226Z,0.40
2022-11-10T10:17:42.288Z,0.65
2022-11-10T10:20:43.769Z,1.10
2022-11-10T10:27:01.740Z,0.68
2022-11-10T10:29:49.902Z,0.68
2022-11-10T10:32:37.842Z,0.70
2022-11-10T10:35:24.403Z,0.73
2022-11-10T10:38:36.996Z,0.20
2022-11-10T10:41:30.867Z,0.30
2022-11-10T10:44:20.480Z,0.50
2022-11-10T10:47:06.936Z,0.30
2022-11-10T10:49:52.372Z,0.22
2022-11-10T10:52:38.309Z,0.28
2022-11-10T10:55:31.048Z,0.63
2022-11-10T10:58:23.890Z,0.75
2022-11-10T11:01:16.688Z,0.30
2022-11-10T11:04:28.317Z,1.52
2022-11-10T11:07:23.576Z,0.95
2022-11-10T11:10:36.832Z,0.57
2022-11-10T11:13:28.612Z,0.45
2022-11-10T11:16:14.787Z,1.27
2022-11-10T11:19:01.985Z,0.13
2022-11-10T11:22:04.946Z,0.17
2022-11-10T11:24:57.768Z,0.10
2022-11-10T11:27:46.456Z,0.60
2022-11-10T11:30:51.102Z,0.10
2022-11-10T11:34:03.815Z,0.10
2022-11-10T11:36:59.491Z,1.15
2022-11-10T11:39:58.665Z,0.88
2022-11-10T11:42:58.515Z,0.30
2022-11-10T11:46:27.744Z,8.43
2022-11-10T11:49:29.779Z,13.48
2022-11-10T11:52:36.807Z,14.45
2022-11-10T11:56:02.442Z,15.98
2022-11-10T11:59:05.027Z,15.68
2022-11-10T12:02:19.518Z,14.60
2022-11-10T12:05:29.241Z,16.50
2022-11-10T12:11:30.225Z,13.90
2022-11-10T12:14:31.969Z,14.55
2022-11-10T12:17:32.036Z,13.65
2022-11-10T12:20:43.414Z,15.52
2022-11-10T12:24:10.734Z,16.55
2022-11-10T12:27:00.904Z,17.30
2022-11-10T12:30:07.924Z,17.40
2022-11-10T12:33:07.001Z,21.35
2022-11-10T12:35:55.605Z,202.68
2022-11-10T12:38:48.990Z,26.80
2022-11-10T12:41:49.674Z,22.65
2022-11-10T12:45:09.689Z,20.88
2022-11-10T12:47:57.732Z,22.27
2022-11-10T12:51:13.063Z,23.42
2022-11-10T12:53:59.790Z,24.15
2022-11-10T12:56:51.373Z,23.10
2022-11-10T12:59:39.120Z,21.17
2022-11-10T13:02:26.274Z,25.95
2022-11-10T13:05:14.329Z,21.70
2022-11-10T13:08:17.915Z,22.65
2022-11-10T13:11:12.512Z,24.15
2022-11-10T13:14:19.751Z,22.42
2022-11-10T13:17:05.900Z,21.67
2022-11-10T13:19:52.397Z,23.45
2022-11-10T13:22:40.915Z,22.77
2022-11-10T13:25:38.663Z,23.38
2022-11-10T13:28:48.872Z,24.52
2022-11-10T13:31:38.423Z,22.83
2022-11-10T13:34:37.634Z,24.20
2022-11-10T13:37:35.041Z,25.33
2022-11-10T13:40:20.368Z,30.20
2022-11-10T13:43:25.314Z,26.65
2022-11-10T13:46:10.429Z,26.13
2022-11-10T13:49:15.463Z,33.20
2022-11-10T13:52:07.607Z,25.55
2022-11-10T13:55:19.061Z,26.15
2022-11-10T13:58:09.570Z,29.40
2022-11-10T14:01:17.066Z,26.80
2022-11-10T14:04:03.692Z,25.17
2022-11-10T14:06:55.085Z,25.90
2022-11-10T14:09:44.665Z,33.47
2022-11-10T14:12:50.901Z,36.40
2022-11-10T14:15:43.339Z,24.75
2022-11-10T14:18:39.757Z,26.77
2022-11-10T14:21:36.985Z,23.70
2022-11-10T14:24:28.776Z,22.73
2022-11-10T14:27:18.569Z,27.02
2022-11-10T14:30:14.887Z,26.25
2022-11-10T14:33:04.298Z,42.92
2022-11-10T14:35:56.313Z,29.15
2022-11-10T14:38:44.770Z,27.08
2022-11-10T14:41:30.073Z,25.30
2022-11-10T14:44:23.456Z,23.58
2022-11-10T14:47:28.284Z,23.42
2022-11-10T14:50:13.517Z,23.48
2022-11-10T14:53:03.085Z,26.27
2022-11-10T14:55:54.648Z,26.55
2022-11-10T14:58:42.520Z,31.38
2022-11-10T15:01:34.669Z,33.38
2022-11-10T15:04:22.836Z,32.85
2022-11-10T15:07:09.290Z,29.83
2022-11-10T15:10:13.584Z,29.15
2022-11-10T15:13:06.790Z,30.58
2022-11-10T15:15:53.929Z,28.27
2022-11-10T15:18:39.616Z,29.50
2022-11-10T15:21:34.218Z,27.02
2022-11-10T15:24:21.160Z,30.08
2022-11-10T15:27:30.570Z,30.27
2022-11-10T15:30:23.484Z,37.30
2022-11-10T15:33:10.401Z,35.72
2022-11-10T15:36:12.545Z,27.90
2022-11-10T15:39:23.422Z,54.47
2022-11-10T15:42:24.217Z,37.53
2022-11-10T15:45:09.848Z,40.72
2022-11-10T15:47:56.204Z,39.00
2022-11-10T15:50:48.091Z,28.65
2022-11-10T15:53:38.654Z,55.50
2022-11-10T15:56:25.328Z,45.25
2022-11-10T15:59:11.275Z,51.03
2022-11-10T16:01:57.284Z,50.15
2022-11-10T16:04:42.708Z,36.83
2022-11-10T16:07:28.008Z,47.25
2022-11-10T16:10:13.360Z,47.13
2022-11-10T16:12:58.632Z,45.08
2022-11-10T16:15:45.628Z,44.00
2022-11-10T16:18:31.289Z,72.85
2022-11-10T16:21:19.437Z,53.45
2022-11-10T16:24:04.867Z,44.72
2022-11-10T16:26:50.417Z,44.40
2022-11-10T16:29:36.545Z,45.97
2022-11-10T16:32:22.175Z,60.20
2022-11-10T16:35:13.216Z,51.28
2022-11-10T16:37:58.184Z,58.95
2022-11-10T16:40:43.666Z,45.75
2022-11-10T16:43:30.702Z,49.15
2022-11-10T16:46:19.080Z,88.53
2022-11-10T16:49:06.832Z,47.75
2022-11-10T16:51:52.271Z,52.53
2022-11-10T16:54:37.540Z,56.95
2022-11-10T16:57:23.009Z,48.13
2022-11-10T17:00:09.255Z,58.00
2022-11-10T17:03:04.629Z,57.08
2022-11-10T17:05:50.025Z,34.58
2022-11-10T17:08:35.941Z,34.83
2022-11-10T17:11:22.164Z,42.00
2022-11-10T17:14:10.818Z,51.85
2022-11-10T17:16:58.481Z,63.20
2022-11-10T17:19:43.868Z,55.75
2022-11-10T17:22:33.558Z,54.75
2022-11-10T17:25:29.965Z,65.68
2022-11-10T17:28:17.266Z,46.03
2022-11-10T17:31:03.488Z,45.80
2022-11-10T17:33:49.483Z,48.03
2022-11-10T17:36:35.338Z,44.15
2022-11-10T17:39:20.698Z,45.38
2022-11-10T17:42:06.209Z,37.55
2022-11-10T17:44:51.300Z,54.25
2022-11-10T17:47:36.873Z,48.88
2022-11-10T17:50:23.805Z,43.88
2022-11-10T17:53:21.406Z,41.08
2022-11-10T17:56:07.066Z,52.38
2022-11-10T17:58:54.517Z,45.10
2022-11-10T18:01:39.780Z,47.75
2022-11-10T18:04:26.438Z,54.75
2022-11-10T18:07:11.633Z,50.00
2022-11-10T18:09:56.770Z,49.63
2022-11-10T18:12:42.166Z,55.80
2022-11-10T18:15:27.403Z,45.45
2022-11-10T18:18:14.372Z,48.70
2022-11-10T18:20:59.481Z,57.55
2022-11-10T18:23:44.846Z,50.20
2022-11-10T18:26:30.302Z,43.85
2022-11-10T18:29:15.489Z,45.60
2022-11-10T18:32:00.777Z,42.40
2022-11-10T18:34:46.330Z,37.03
2022-11-10T18:37:33.796Z,30.52
2022-11-10T18:40:22.033Z,41.55
2022-11-10T18:43:07.918Z,43.00
2022-11-10T18:45:54.894Z,41.78
2022-11-10T18:48:41.223Z,61.35
2022-11-10T18:51:26.551Z,38.45
2022-11-10T18:54:12.873Z,37.55
2022-11-10T18:56:58.378Z,36.05
2022-11-10T18:59:43.778Z,32.00
2022-11-10T19:02:29.128Z,30.45
2022-11-10T19:05:14.894Z,31.10
2022-11-10T19:08:00.331Z,30.13
2022-11-10T19:10:45.732Z,24.90
2022-11-10T19:13:31.127Z,22.08
2022-11-10T19:16:18.744Z,21.60
2022-11-10T19:19:04.603Z,24.45
2022-11-10T19:21:49.777Z,26.77
2022-11-10T19:24:53.751Z,21.10
2022-11-10T19:27:42.084Z,20.77
2022-11-10T19:30:27.498Z,10.85
2022-11-10T19:33:12.785Z,10.52
2022-11-10T19:36:11.751Z,8.88
2022-11-10T19:38:57.632Z,0.47
2022-11-10T19:41:42.795Z,0.35
2022-11-10T19:44:28.074Z,0.20
2022-11-10T19:47:13.517Z,0.30
2022-11-10T19:49:58.861Z,0.15
2022-11-10T19:52:44.200Z,0.60
2022-11-10T19:55:32.026Z,0.08
2022-11-10T19:58:18.030Z,0.10
2022-11-10T20:01:04.223Z,0.00
2022-11-10T20:03:49.645Z,0.95
2022-11-10T20:06:34.908Z,0.25
2022-11-10T20:09:20.320Z,0.50
2022-11-10T20:12:06.104Z,1.38
2022-11-10T20:14:51.289Z,1.30
2022-11-10T20:17:36.605Z,0.57
2022-11-10T20:20:22.196Z,0.90
2022-11-10T20:23:10.561Z,0.20
2022-11-10T20:28:49.768Z,0.60
2022-11-10T20:31:37.077Z,0.20
2022-11-10T20:34:22.956Z,0.30
2022-11-10T20:37:08.536Z,0.35
2022-11-10T20:39:53.714Z,0.08
2022-11-10T20:42:42.613Z,0.75
2022-11-10T20:45:28.871Z,0.00
2022-11-10T20:48:14.677Z,0.85
2022-11-10T20:51:01.130Z,0.08
2022-11-10T20:53:47.620Z,0.03
2022-11-10T20:56:33.398Z,0.43
2022-11-10T20:59:19.296Z,0.13
2022-11-10T21:02:04.814Z,0.30
2022-11-10T21:04:50.602Z,0.10
2022-11-10T21:07:36.628Z,0.10
2022-11-10T21:10:22.415Z,0.20
2022-11-10T21:13:08.398Z,1.10
2022-11-10T21:15:59.397Z,1.20
2022-11-10T21:18:45.095Z,0.15
2022-11-10T21:21:36.529Z,0.10
2022-11-10T21:24:22.400Z,0.20
2022-11-10T21:27:11.278Z,0.03
2022-11-10T21:29:58.359Z,0.10
2022-11-10T21:32:43.707Z,0.20
2022-11-10T21:35:32.836Z,0.00
2022-11-10T21:38:20.905Z,0.45
2022-11-10T21:41:06.590Z,0.47
2022-11-10T21:43:52.416Z,0.40
2022-11-10T21:46:38.391Z,1.13
2022-11-10T21:49:23.900Z,0.35
2022-11-10T21:52:09.789Z,0.40
2022-11-10T21:54:55.101Z,0.25
2022-11-10T21:57:40.421Z,0.20
2022-11-10T22:00:26.825Z,0.00
2022-11-10T22:03:12.114Z,0.50
2022-11-10T22:06:04.638Z,1.95
2022-11-10T22:08:49.925Z,0.52
2022-11-10T22:11:53.827Z,0.32
2022-11-10T22:14:57.771Z,0.30
2022-11-10T22:18:02.399Z,0.30
2022-11-10T22:20:47.729Z,0.40
2022-11-10T22:23:52.161Z,1.02
2022-11-10T22:26:37.416Z,0.30
2022-11-10T22:29:30.106Z,0.55
2022-11-10T22:32:16.602Z,0.57
2022-11-10T22:35:01.839Z,1.17
2022-11-10T22:37:47.237Z,0.40
2022-11-10T22:40:52.046Z,0.10
2022-11-10T22:43:55.850Z,0.30
2022-11-10T22:46:46.074Z,0.70
2022-11-10T22:49:31.691Z,0.30
2022-11-10T22:52:16.905Z,0.20
2022-11-10T22:55:02.244Z,0.20
2022-11-10T22:57:47.617Z,0.30
2022-11-10T23:00:32.789Z,0.13
2022-11-10T23:03:18.018Z,0.40
2022-11-10T23:06:04.104Z,0.30
2022-11-10T23:08:49.208Z,0.20
2022-11-10T23:11:34.695Z,0.40
2022-11-10T23:14:19.914Z,0.47
2022-11-10T23:17:05.336Z,2.00
2022-11-10T23:19:50.583Z,0.10
2022-11-10T23:22:35.964Z,0.45
2022-11-10T23:25:21.353Z,0.10
2022-11-10T23:28:06.677Z,0.15
2022-11-10T23:30:52.080Z,0.10
2022-11-10T23:33:39.159Z,0.20
2022-11-10T23:36:26.072Z,1.55
2022-11-10T23:39:13.173Z,0.65
2022-11-10T23:41:58.472Z,0.20
2022-11-10T23:44:43.838Z,0.63
2022-11-10T23:47:29.325Z,0.30
2022-11-10T23:50:14.646Z,0.13
2022-11-10T23:52:59.861Z,0.25
2022-11-10T23:55:45.452Z,0.30
2022-11-10T23:58:30.623Z,1.35
